Aviation Digital Data Service (ADDS)

Output produced by METARs form (0030 UTC 26 June 2019)
found at http://aviationweather.gov/metar/data/
 
KIAH 252353Z 14003KT 10SM -RA FEW035 SCT100 OVC140 24/23 A3004 RMK AO2 SLP173 P0000 60000 T02390228 10289 20239 55001 $
KIAH 252359Z 2600/2706 14006KT P6SM VCSH FEW035 SCT100 OVC140 
     TEMPO 2600/2602 -RA 
     FM260200 14006KT P6SM SCT030 BKN150 
     FM261000 13007KT P6SM BKN020 
     FM261500 13008KT P6SM VCSH SCT035 
     FM261900 13010KT P6SM VCTS SCT040CB 
     FM270100 12006KT P6SM SCT030 BKN150